sensor_id;sensor_type;location;lat;lon;timestamp;P1;durP1;ratioP1;P2;durP2;ratioP2
4430;SDS011;2228;48.140;11.488;2022-12-29T00:00:23;1.65;;;1.20;;
4430;SDS011;2228;48.140;11.488;2022-12-29T00:02:52;3.60;;;1.20;;
4430;SDS011;2228;48.140;11.488;2022-12-29T00:05:23;1.55;;;1.10;;
4430;SDS011;2228;48.140;11.488;2022-12-29T00:07:53;2.00;;;1.15;;
4430;SDS011;2228;48.140;11.488;2022-12-29T00:10:21;1.55;;;1.30;;
4430;SDS011;2228;48.140;11.488;2022-12-29T00:12:49;2.00;;;1.13;;
4430;SDS011;2228;48.140;11.488;2022-12-29T00:15:35;1.60;;;1.00;;
4430;SDS011;2228;48.140;11.488;2022-12-29T00:18:08;2.17;;;1.40;;
4430;SDS011;2228;48.140;11.488;2022-12-29T00:20:39;2.10;;;1.20;;
4430;SDS011;2228;48.140;11.488;2022-12-29T00:23:23;2.22;;;1.20;;
4430;SDS011;2228;48.140;11.488;2022-12-29T00:26:12;1.83;;;1.10;;
4430;SDS011;2228;48.140;11.488;2022-12-29T00:28:58;2.00;;;1.20;;
4430;SDS011;2228;48.140;11.488;2022-12-29T00:31:42;2.50;;;1.10;;
4430;SDS011;2228;48.140;11.488;2022-12-29T00:34:27;1.40;;;0.90;;
4430;SDS011;2228;48.140;11.488;2022-12-29T00:37:12;1.90;;;1.00;;
4430;SDS011;2228;48.140;11.488;2022-12-29T00:39:41;1.90;;;1.10;;
4430;SDS011;2228;48.140;11.488;2022-12-29T05:40:03;1.20;;;0.80;;
4430;SDS011;2228;48.140;11.488;2022-12-29T05:42:30;1.60;;;1.00;;
4430;SDS011;2228;48.140;11.488;2022-12-29T05:44:57;2.90;;;0.80;;
4430;SDS011;2228;48.140;11.488;2022-12-29T05:47:24;16.10;;;1.70;;
4430;SDS011;2228;48.140;11.488;2022-12-29T05:49:52;2.83;;;1.10;;
4430;SDS011;2228;48.140;11.488;2022-12-29T05:52:19;1.75;;;0.95;;
4430;SDS011;2228;48.140;11.488;2022-12-29T05:54:46;0.93;;;0.80;;
4430;SDS011;2228;48.140;11.488;2022-12-29T05:57:14;3.00;;;0.90;;
4430;SDS011;2228;48.140;11.488;2022-12-29T05:59:41;2.60;;;1.00;;
4430;SDS011;2228;48.140;11.488;2022-12-29T06:02:08;1.00;;;0.80;;
4430;SDS011;2228;48.140;11.488;2022-12-29T06:04:35;2.20;;;0.80;;
4430;SDS011;2228;48.140;11.488;2022-12-29T06:07:02;3.10;;;0.90;;
4430;SDS011;2228;48.140;11.488;2022-12-29T06:09:29;1.30;;;0.90;;
4430;SDS011;2228;48.140;11.488;2022-12-29T06:11:56;1.20;;;0.80;;
4430;SDS011;2228;48.140;11.488;2022-12-29T06:14:25;2.40;;;0.80;;
4430;SDS011;2228;48.140;11.488;2022-12-29T06:16:52;1.08;;;0.90;;
4430;SDS011;2228;48.140;11.488;2022-12-29T06:19:19;0.90;;;0.80;;
4430;SDS011;2228;48.140;11.488;2022-12-29T06:21:46;1.83;;;1.38;;
4430;SDS011;2228;48.140;11.488;2022-12-29T06:24:13;1.92;;;0.88;;
4430;SDS011;2228;48.140;11.488;2022-12-29T06:26:40;1.10;;;0.80;;
4430;SDS011;2228;48.140;11.488;2022-12-29T06:29:07;2.70;;;0.90;;
4430;SDS011;2228;48.140;11.488;2022-12-29T06:31:36;1.83;;;0.90;;
4430;SDS011;2228;48.140;11.488;2022-12-29T06:34:03;0.90;;;0.80;;
4430;SDS011;2228;48.140;11.488;2022-12-29T06:36:30;2.00;;;0.90;;
4430;SDS011;2228;48.140;11.488;2022-12-29T06:38:57;3.70;;;0.90;;
4430;SDS011;2228;48.140;11.488;2022-12-29T06:41:24;1.30;;;0.90;;
4430;SDS011;2228;48.140;11.488;2022-12-29T06:43:51;2.45;;;1.00;;
4430;SDS011;2228;48.140;11.488;2022-12-29T06:46:18;2.45;;;1.00;;
4430;SDS011;2228;48.140;11.488;2022-12-29T06:48:46;2.33;;;1.00;;
4430;SDS011;2228;48.140;11.488;2022-12-29T06:51:13;3.20;;;1.00;;
4430;SDS011;2228;48.140;11.488;2022-12-29T06:53:40;1.85;;;1.08;;
4430;SDS011;2228;48.140;11.488;2022-12-29T06:56:07;4.30;;;1.00;;
4430;SDS011;2228;48.140;11.488;2022-12-29T06:58:34;1.20;;;0.90;;
4430;SDS011;2228;48.140;11.488;2022-12-29T07:01:01;1.70;;;0.90;;
4430;SDS011;2228;48.140;11.488;2022-12-29T07:03:28;1.80;;;0.90;;
4430;SDS011;2228;48.140;11.488;2022-12-29T07:05:56;1.42;;;1.00;;
4430;SDS011;2228;48.140;11.488;2022-12-29T07:08:24;1.75;;;1.05;;
4430;SDS011;2228;48.140;11.488;2022-12-29T07:10:51;1.50;;;1.00;;
4430;SDS011;2228;48.140;11.488;2022-12-29T07:13:18;1.50;;;0.90;;
4430;SDS011;2228;48.140;11.488;2022-12-29T07:15:45;2.40;;;1.30;;
4430;SDS011;2228;48.140;11.488;2022-12-29T07:18:12;1.60;;;1.00;;
4430;SDS011;2228;48.140;11.488;2022-12-29T07:20:39;2.35;;;1.02;;
4430;SDS011;2228;48.140;11.488;2022-12-29T07:23:07;2.70;;;1.20;;
4430;SDS011;2228;48.140;11.488;2022-12-29T07:25:34;3.63;;;1.60;;
4430;SDS011;2228;48.140;11.488;2022-12-29T07:28:01;5.28;;;2.20;;
4430;SDS011;2228;48.140;11.488;2022-12-29T07:30:29;4.60;;;2.20;;
4430;SDS011;2228;48.140;11.488;2022-12-29T07:32:56;3.70;;;1.33;;
4430;SDS011;2228;48.140;11.488;2022-12-29T07:35:23;2.80;;;1.30;;
4430;SDS011;2228;48.140;11.488;2022-12-29T07:37:50;3.20;;;1.07;;
4430;SDS011;2228;48.140;11.488;2022-12-29T07:40:19;1.33;;;0.90;;
4430;SDS011;2228;48.140;11.488;2022-12-29T07:42:46;3.50;;;1.00;;
4430;SDS011;2228;48.140;11.488;2022-12-29T07:45:13;1.95;;;0.90;;
4430;SDS011;2228;48.140;11.488;2022-12-29T07:47:40;2.20;;;1.00;;
4430;SDS011;2228;48.140;11.488;2022-12-29T07:50:07;1.50;;;0.90;;
4430;SDS011;2228;48.140;11.488;2022-12-29T07:52:34;1.00;;;0.70;;
4430;SDS011;2228;48.140;11.488;2022-12-29T07:55:01;2.90;;;0.90;;
4430;SDS011;2228;48.140;11.488;2022-12-29T07:57:29;1.60;;;1.10;;
4430;SDS011;2228;48.140;11.488;2022-12-29T07:59:56;2.60;;;1.10;;
4430;SDS011;2228;48.140;11.488;2022-12-29T08:02:23;2.33;;;1.20;;
4430;SDS011;2228;48.140;11.488;2022-12-29T08:04:51;4.80;;;1.20;;
4430;SDS011;2228;48.140;11.488;2022-12-29T08:07:18;1.90;;;1.10;;
4430;SDS011;2228;48.140;11.488;2022-12-29T08:09:45;2.30;;;1.20;;
4430;SDS011;2228;48.140;11.488;2022-12-29T08:12:12;2.57;;;1.00;;
4430;SDS011;2228;48.140;11.488;2022-12-29T08:14:41;2.10;;;1.10;;
4430;SDS011;2228;48.140;11.488;2022-12-29T08:17:08;4.40;;;0.98;;
4430;SDS011;2228;48.140;11.488;2022-12-29T08:19:35;2.33;;;1.02;;
4430;SDS011;2228;48.140;11.488;2022-12-29T08:22:02;4.80;;;1.20;;
4430;SDS011;2228;48.140;11.488;2022-12-29T08:24:29;3.10;;;0.93;;
4430;SDS011;2228;48.140;11.488;2022-12-29T08:26:56;2.45;;;1.00;;
4430;SDS011;2228;48.140;11.488;2022-12-29T08:29:23;4.00;;;1.10;;
4430;SDS011;2228;48.140;11.488;2022-12-29T08:31:51;1.40;;;0.90;;
4430;SDS011;2228;48.140;11.488;2022-12-29T08:34:18;2.80;;;0.80;;
4430;SDS011;2228;48.140;11.488;2022-12-29T08:36:45;5.10;;;0.90;;
4430;SDS011;2228;48.140;11.488;2022-12-29T08:39:13;2.00;;;1.30;;
4430;SDS011;2228;48.140;11.488;2022-12-29T08:41:40;2.80;;;1.00;;
4430;SDS011;2228;48.140;11.488;2022-12-29T08:44:07;1.80;;;1.00;;
4430;SDS011;2228;48.140;11.488;2022-12-29T08:46:34;2.40;;;1.10;;
4430;SDS011;2228;48.140;11.488;2022-12-29T08:49:03;2.17;;;1.10;;
4430;SDS011;2228;48.140;11.488;2022-12-29T08:51:30;3.80;;;1.40;;
4430;SDS011;2228;48.140;11.488;2022-12-29T08:53:57;4.07;;;1.40;;
4430;SDS011;2228;48.140;11.488;2022-12-29T08:56:24;3.60;;;1.20;;
4430;SDS011;2228;48.140;11.488;2022-12-29T08:58:51;1.80;;;1.30;;
4430;SDS011;2228;48.140;11.488;2022-12-29T09:01:19;1.38;;;1.10;;
4430;SDS011;2228;48.140;11.488;2022-12-29T09:03:46;1.70;;;1.10;;
4430;SDS011;2228;48.140;11.488;2022-12-29T09:06:15;2.70;;;1.00;;
4430;SDS011;2228;48.140;11.488;2022-12-29T09:08:43;3.13;;;1.20;;
4430;SDS011;2228;48.140;11.488;2022-12-29T09:11:11;1.70;;;1.10;;
4430;SDS011;2228;48.140;11.488;2022-12-29T09:13:40;2.70;;;1.00;;
4430;SDS011;2228;48.140;11.488;2022-12-29T09:16:07;2.87;;;1.00;;
4430;SDS011;2228;48.140;11.488;2022-12-29T09:18:35;2.38;;;1.20;;
4430;SDS011;2228;48.140;11.488;2022-12-29T09:21:03;3.88;;;1.10;;
4430;SDS011;2228;48.140;11.488;2022-12-29T09:23:33;3.00;;;1.10;;
4430;SDS011;2228;48.140;11.488;2022-12-29T09:26:01;3.40;;;0.98;;
4430;SDS011;2228;48.140;11.488;2022-12-29T09:28:28;2.28;;;0.80;;
4430;SDS011;2228;48.140;11.488;2022-12-29T09:30:56;1.33;;;0.70;;
4430;SDS011;2228;48.140;11.488;2022-12-29T09:33:24;1.90;;;0.93;;
4430;SDS011;2228;48.140;11.488;2022-12-29T09:35:51;3.70;;;0.90;;
4430;SDS011;2228;48.140;11.488;2022-12-29T09:38:20;4.53;;;1.00;;
4430;SDS011;2228;48.140;11.488;2022-12-29T09:40:50;1.98;;;0.90;;
4430;SDS011;2228;48.140;11.488;2022-12-29T11:29:03;4.00;;;0.90;;
4430;SDS011;2228;48.140;11.488;2022-12-29T11:31:39;1.63;;;0.80;;
4430;SDS011;2228;48.140;11.488;2022-12-29T11:34:07;2.20;;;0.90;;
4430;SDS011;2228;48.140;11.488;2022-12-29T11:36:34;1.83;;;1.00;;
4430;SDS011;2228;48.140;11.488;2022-12-29T11:39:02;3.15;;;1.10;;
4430;SDS011;2228;48.140;11.488;2022-12-29T11:41:31;1.50;;;0.80;;
4430;SDS011;2228;48.140;11.488;2022-12-29T11:43:59;1.00;;;0.70;;
4430;SDS011;2228;48.140;11.488;2022-12-29T11:46:30;1.40;;;1.00;;
4430;SDS011;2228;48.140;11.488;2022-12-29T11:48:59;1.70;;;1.00;;
4430;SDS011;2228;48.140;11.488;2022-12-29T11:51:27;1.05;;;0.80;;
4430;SDS011;2228;48.140;11.488;2022-12-29T11:53:57;2.53;;;0.90;;
4430;SDS011;2228;48.140;11.488;2022-12-29T11:56:33;1.40;;;0.90;;
4430;SDS011;2228;48.140;11.488;2022-12-29T11:59:24;1.40;;;0.90;;
4430;SDS011;2228;48.140;11.488;2022-12-29T12:02:14;2.10;;;0.90;;
4430;SDS011;2228;48.140;11.488;2022-12-29T12:05:18;2.30;;;1.05;;
4430;SDS011;2228;48.140;11.488;2022-12-29T12:07:50;1.60;;;0.80;;
4430;SDS011;2228;48.140;11.488;2022-12-29T12:10:23;1.42;;;0.80;;
4430;SDS011;2228;48.140;11.488;2022-12-29T12:12:56;1.65;;;0.80;;
4430;SDS011;2228;48.140;11.488;2022-12-29T12:15:29;1.95;;;0.90;;
4430;SDS011;2228;48.140;11.488;2022-12-29T12:18:02;2.30;;;1.00;;
4430;SDS011;2228;48.140;11.488;2022-12-29T12:20:36;1.45;;;0.95;;
4430;SDS011;2228;48.140;11.488;2022-12-29T12:23:12;2.00;;;1.10;;
4430;SDS011;2228;48.140;11.488;2022-12-29T12:25:48;6.70;;;1.00;;
4430;SDS011;2228;48.140;11.488;2022-12-29T12:28:26;1.90;;;1.10;;
4430;SDS011;2228;48.140;11.488;2022-12-29T12:31:01;2.92;;;0.70;;
4430;SDS011;2228;48.140;11.488;2022-12-29T12:33:31;1.00;;;0.90;;
4430;SDS011;2228;48.140;11.488;2022-12-29T12:36:14;1.15;;;0.80;;
4430;SDS011;2228;48.140;11.488;2022-12-29T12:38:51;2.33;;;0.80;;
4430;SDS011;2228;48.140;11.488;2022-12-29T12:41:28;1.80;;;0.90;;
4430;SDS011;2228;48.140;11.488;2022-12-29T12:44:07;2.83;;;1.03;;
4430;SDS011;2228;48.140;11.488;2022-12-29T12:46:51;4.03;;;0.90;;
4430;SDS011;2228;48.140;11.488;2022-12-29T12:52:38;1.00;;;0.70;;
4430;SDS011;2228;48.140;11.488;2022-12-29T12:55:30;4.53;;;0.80;;
4430;SDS011;2228;48.140;11.488;2022-12-29T12:58:08;1.50;;;0.80;;
4430;SDS011;2228;48.140;11.488;2022-12-29T13:00:46;2.10;;;0.80;;
4430;SDS011;2228;48.140;11.488;2022-12-29T13:03:22;2.13;;;0.80;;
4430;SDS011;2228;48.140;11.488;2022-12-29T13:06:04;2.55;;;0.95;;
4430;SDS011;2228;48.140;11.488;2022-12-29T13:08:50;1.50;;;1.08;;
4430;SDS011;2228;48.140;11.488;2022-12-29T13:11:38;1.92;;;0.90;;
4430;SDS011;2228;48.140;11.488;2022-12-29T13:14:23;1.60;;;1.00;;
4430;SDS011;2228;48.140;11.488;2022-12-29T13:17:02;1.75;;;1.00;;
4430;SDS011;2228;48.140;11.488;2022-12-29T13:19:34;1.70;;;0.90;;
4430;SDS011;2228;48.140;11.488;2022-12-29T13:22:07;2.30;;;1.10;;
4430;SDS011;2228;48.140;11.488;2022-12-29T13:24:42;2.00;;;0.85;;
4430;SDS011;2228;48.140;11.488;2022-12-29T13:27:16;2.72;;;1.20;;
4430;SDS011;2228;48.140;11.488;2022-12-29T13:29:50;2.00;;;1.00;;
4430;SDS011;2228;48.140;11.488;2022-12-29T13:32:32;1.40;;;0.90;;
4430;SDS011;2228;48.140;11.488;2022-12-29T13:35:09;1.85;;;1.10;;
4430;SDS011;2228;48.140;11.488;2022-12-29T13:37:47;3.17;;;1.10;;
4430;SDS011;2228;48.140;11.488;2022-12-29T13:40:21;1.80;;;1.00;;
4430;SDS011;2228;48.140;11.488;2022-12-29T13:42:51;1.20;;;0.90;;
4430;SDS011;2228;48.140;11.488;2022-12-29T13:45:20;2.45;;;1.00;;
4430;SDS011;2228;48.140;11.488;2022-12-29T13:47:52;1.58;;;1.00;;
4430;SDS011;2228;48.140;11.488;2022-12-29T13:50:24;2.80;;;1.10;;
4430;SDS011;2228;48.140;11.488;2022-12-29T13:52:56;1.77;;;1.17;;
4430;SDS011;2228;48.140;11.488;2022-12-29T13:55:31;2.60;;;1.40;;
4430;SDS011;2228;48.140;11.488;2022-12-29T13:58:03;1.60;;;0.90;;
4430;SDS011;2228;48.140;11.488;2022-12-29T14:00:42;1.83;;;0.80;;
4430;SDS011;2228;48.140;11.488;2022-12-29T14:03:24;1.50;;;0.90;;
4430;SDS011;2228;48.140;11.488;2022-12-29T14:06:12;3.50;;;1.20;;
4430;SDS011;2228;48.140;11.488;2022-12-29T14:08:43;1.58;;;0.70;;
4430;SDS011;2228;48.140;11.488;2022-12-29T14:11:11;2.20;;;1.00;;
4430;SDS011;2228;48.140;11.488;2022-12-29T14:13:40;4.63;;;0.80;;
4430;SDS011;2228;48.140;11.488;2022-12-29T14:16:10;1.55;;;0.82;;
4430;SDS011;2228;48.140;11.488;2022-12-29T14:18:51;2.10;;;1.00;;
4430;SDS011;2228;48.140;11.488;2022-12-29T14:21:20;1.80;;;1.00;;
4430;SDS011;2228;48.140;11.488;2022-12-29T14:23:52;2.10;;;0.70;;
4430;SDS011;2228;48.140;11.488;2022-12-29T14:26:33;2.60;;;1.02;;
4430;SDS011;2228;48.140;11.488;2022-12-29T14:29:22;3.20;;;1.00;;
4430;SDS011;2228;48.140;11.488;2022-12-29T14:38:19;3.00;;;1.10;;
4430;SDS011;2228;48.140;11.488;2022-12-29T14:41:15;1.75;;;0.80;;
4430;SDS011;2228;48.140;11.488;2022-12-29T16:40:25;4.10;;;2.30;;
4430;SDS011;2228;48.140;11.488;2022-12-29T16:42:56;7.63;;;3.00;;
4430;SDS011;2228;48.140;11.488;2022-12-29T16:48:32;6.63;;;3.80;;
4430;SDS011;2228;48.140;11.488;2022-12-29T16:51:03;13.32;;;6.10;;
4430;SDS011;2228;48.140;11.488;2022-12-29T16:53:33;10.25;;;5.18;;
4430;SDS011;2228;48.140;11.488;2022-12-29T16:56:05;14.07;;;6.23;;
4430;SDS011;2228;48.140;11.488;2022-12-29T16:58:39;6.20;;;4.20;;
4430;SDS011;2228;48.140;11.488;2022-12-29T17:01:06;7.53;;;4.22;;
4430;SDS011;2228;48.140;11.488;2022-12-29T17:03:41;9.82;;;5.30;;
4430;SDS011;2228;48.140;11.488;2022-12-29T17:06:14;7.97;;;4.90;;
4430;SDS011;2228;48.140;11.488;2022-12-29T17:08:42;6.40;;;4.80;;
4430;SDS011;2228;48.140;11.488;2022-12-29T17:11:18;7.00;;;4.22;;
4430;SDS011;2228;48.140;11.488;2022-12-29T17:14:11;10.20;;;5.78;;
4430;SDS011;2228;48.140;11.488;2022-12-29T17:16:47;6.50;;;4.30;;
4430;SDS011;2228;48.140;11.488;2022-12-29T17:19:15;7.47;;;4.50;;
4430;SDS011;2228;48.140;11.488;2022-12-29T17:21:43;9.52;;;4.40;;
4430;SDS011;2228;48.140;11.488;2022-12-29T17:24:11;6.95;;;4.25;;
4430;SDS011;2228;48.140;11.488;2022-12-29T17:26:46;8.75;;;4.68;;
4430;SDS011;2228;48.140;11.488;2022-12-29T17:29:18;11.27;;;5.63;;
4430;SDS011;2228;48.140;11.488;2022-12-29T17:31:47;8.80;;;5.00;;
4430;SDS011;2228;48.140;11.488;2022-12-29T17:34:14;10.23;;;6.32;;
4430;SDS011;2228;48.140;11.488;2022-12-29T17:36:41;8.88;;;4.50;;
4430;SDS011;2228;48.140;11.488;2022-12-29T17:39:08;7.95;;;4.18;;
4430;SDS011;2228;48.140;11.488;2022-12-29T17:41:36;8.55;;;3.75;;
4430;SDS011;2228;48.140;11.488;2022-12-29T17:44:05;6.30;;;3.80;;
4430;SDS011;2228;48.140;11.488;2022-12-29T17:46:32;8.02;;;4.32;;
4430;SDS011;2228;48.140;11.488;2022-12-29T17:48:59;8.82;;;4.40;;
4430;SDS011;2228;48.140;11.488;2022-12-29T17:51:27;11.95;;;5.80;;
4430;SDS011;2228;48.140;11.488;2022-12-29T17:53:54;10.40;;;5.30;;
4430;SDS011;2228;48.140;11.488;2022-12-29T17:56:21;12.98;;;5.72;;
4430;SDS011;2228;48.140;11.488;2022-12-29T17:58:48;13.73;;;6.47;;
4430;SDS011;2228;48.140;11.488;2022-12-29T18:01:17;17.27;;;7.25;;
4430;SDS011;2228;48.140;11.488;2022-12-29T18:03:46;19.67;;;8.23;;
4430;SDS011;2228;48.140;11.488;2022-12-29T18:06:13;15.40;;;7.50;;
4430;SDS011;2228;48.140;11.488;2022-12-29T18:08:41;12.52;;;5.70;;
4430;SDS011;2228;48.140;11.488;2022-12-29T18:11:15;24.83;;;7.97;;
4430;SDS011;2228;48.140;11.488;2022-12-29T18:13:47;8.63;;;4.70;;
4430;SDS011;2228;48.140;11.488;2022-12-29T18:16:14;6.83;;;3.83;;
4430;SDS011;2228;48.140;11.488;2022-12-29T18:18:43;8.18;;;4.50;;
4430;SDS011;2228;48.140;11.488;2022-12-29T18:21:14;5.22;;;3.45;;
4430;SDS011;2228;48.140;11.488;2022-12-29T18:23:42;7.38;;;4.00;;
4430;SDS011;2228;48.140;11.488;2022-12-29T18:26:14;7.95;;;3.67;;
4430;SDS011;2228;48.140;11.488;2022-12-29T18:28:43;9.32;;;5.40;;
4430;SDS011;2228;48.140;11.488;2022-12-29T18:31:17;12.30;;;5.47;;
4430;SDS011;2228;48.140;11.488;2022-12-29T18:33:47;9.20;;;4.45;;
4430;SDS011;2228;48.140;11.488;2022-12-29T18:36:15;8.18;;;4.30;;
4430;SDS011;2228;48.140;11.488;2022-12-29T18:38:43;7.30;;;4.22;;
4430;SDS011;2228;48.140;11.488;2022-12-29T18:41:12;11.85;;;4.20;;
4430;SDS011;2228;48.140;11.488;2022-12-29T18:43:42;8.40;;;3.95;;
4430;SDS011;2228;48.140;11.488;2022-12-29T18:46:09;11.25;;;5.05;;
4430;SDS011;2228;48.140;11.488;2022-12-29T18:48:36;11.80;;;6.30;;
4430;SDS011;2228;48.140;11.488;2022-12-29T18:51:05;11.18;;;5.80;;
4430;SDS011;2228;48.140;11.488;2022-12-29T18:53:32;9.48;;;5.47;;
4430;SDS011;2228;48.140;11.488;2022-12-29T18:56:02;10.68;;;5.88;;
4430;SDS011;2228;48.140;11.488;2022-12-29T18:58:31;10.00;;;5.38;;
4430;SDS011;2228;48.140;11.488;2022-12-29T19:00:58;6.90;;;4.50;;
4430;SDS011;2228;48.140;11.488;2022-12-29T19:03:26;5.90;;;3.70;;
4430;SDS011;2228;48.140;11.488;2022-12-29T19:05:53;5.37;;;2.90;;
4430;SDS011;2228;48.140;11.488;2022-12-29T19:08:22;4.40;;;2.40;;
4430;SDS011;2228;48.140;11.488;2022-12-29T19:10:49;3.20;;;2.00;;
4430;SDS011;2228;48.140;11.488;2022-12-29T19:13:17;3.40;;;2.10;;
4430;SDS011;2228;48.140;11.488;2022-12-29T19:15:47;2.22;;;1.70;;
4430;SDS011;2228;48.140;11.488;2022-12-29T19:18:16;4.10;;;1.40;;
4430;SDS011;2228;48.140;11.488;2022-12-29T19:20:45;3.70;;;2.08;;
4430;SDS011;2228;48.140;11.488;2022-12-29T19:23:14;4.70;;;2.10;;
4430;SDS011;2228;48.140;11.488;2022-12-29T19:25:44;7.05;;;3.63;;
4430;SDS011;2228;48.140;11.488;2022-12-29T19:28:14;8.95;;;4.15;;
4430;SDS011;2228;48.140;11.488;2022-12-29T19:30:43;7.95;;;3.50;;
4430;SDS011;2228;48.140;11.488;2022-12-29T19:33:11;8.10;;;3.72;;
4430;SDS011;2228;48.140;11.488;2022-12-29T19:35:38;6.82;;;3.40;;
4430;SDS011;2228;48.140;11.488;2022-12-29T19:38:05;6.40;;;3.20;;
4430;SDS011;2228;48.140;11.488;2022-12-29T19:40:32;4.93;;;2.90;;
4430;SDS011;2228;48.140;11.488;2022-12-29T19:43:01;3.75;;;2.10;;
4430;SDS011;2228;48.140;11.488;2022-12-29T19:45:28;4.78;;;2.90;;
4430;SDS011;2228;48.140;11.488;2022-12-29T19:47:54;6.38;;;2.50;;
4430;SDS011;2228;48.140;11.488;2022-12-29T19:50:21;3.92;;;2.00;;
4430;SDS011;2228;48.140;11.488;2022-12-29T19:52:48;3.57;;;2.00;;
4430;SDS011;2228;48.140;11.488;2022-12-29T19:55:17;3.17;;;2.10;;
4430;SDS011;2228;48.140;11.488;2022-12-29T19:57:44;2.95;;;1.80;;
4430;SDS011;2228;48.140;11.488;2022-12-29T20:00:13;5.32;;;2.00;;
4430;SDS011;2228;48.140;11.488;2022-12-29T20:02:41;4.30;;;2.45;;
4430;SDS011;2228;48.140;11.488;2022-12-29T20:05:09;3.30;;;2.50;;
4430;SDS011;2228;48.140;11.488;2022-12-29T20:07:36;2.65;;;1.80;;
4430;SDS011;2228;48.140;11.488;2022-12-29T20:10:04;5.32;;;2.00;;
4430;SDS011;2228;48.140;11.488;2022-12-29T20:12:32;2.75;;;1.65;;
4430;SDS011;2228;48.140;11.488;2022-12-29T20:15:02;2.95;;;1.35;;
4430;SDS011;2228;48.140;11.488;2022-12-29T20:17:31;2.80;;;1.20;;
4430;SDS011;2228;48.140;11.488;2022-12-29T20:19:58;2.60;;;1.50;;
4430;SDS011;2228;48.140;11.488;2022-12-29T20:22:26;3.33;;;1.50;;
4430;SDS011;2228;48.140;11.488;2022-12-29T20:24:53;3.85;;;2.30;;
4430;SDS011;2228;48.140;11.488;2022-12-29T20:27:20;5.63;;;2.50;;
4430;SDS011;2228;48.140;11.488;2022-12-29T20:29:47;4.10;;;1.52;;
4430;SDS011;2228;48.140;11.488;2022-12-29T20:32:16;5.03;;;2.35;;
4430;SDS011;2228;48.140;11.488;2022-12-29T20:34:45;3.88;;;2.00;;
4430;SDS011;2228;48.140;11.488;2022-12-29T20:37:13;4.88;;;2.20;;
4430;SDS011;2228;48.140;11.488;2022-12-29T20:39:41;3.85;;;2.03;;
4430;SDS011;2228;48.140;11.488;2022-12-29T20:42:09;5.60;;;2.33;;
4430;SDS011;2228;48.140;11.488;2022-12-29T20:44:36;4.28;;;2.10;;
4430;SDS011;2228;48.140;11.488;2022-12-29T20:47:03;5.05;;;2.40;;
4430;SDS011;2228;48.140;11.488;2022-12-29T20:49:32;3.95;;;2.40;;
4430;SDS011;2228;48.140;11.488;2022-12-29T20:52:01;3.80;;;2.40;;
4430;SDS011;2228;48.140;11.488;2022-12-29T20:54:29;5.22;;;2.45;;
4430;SDS011;2228;48.140;11.488;2022-12-29T20:56:57;5.57;;;2.63;;
4430;SDS011;2228;48.140;11.488;2022-12-29T20:59:24;6.20;;;3.22;;
4430;SDS011;2228;48.140;11.488;2022-12-29T21:01:50;5.60;;;2.93;;
4430;SDS011;2228;48.140;11.488;2022-12-29T21:04:17;5.90;;;3.10;;
4430;SDS011;2228;48.140;11.488;2022-12-29T21:06:44;5.72;;;3.08;;
4430;SDS011;2228;48.140;11.488;2022-12-29T21:09:13;6.43;;;3.35;;
4430;SDS011;2228;48.140;11.488;2022-12-29T21:11:40;3.90;;;2.60;;
4430;SDS011;2228;48.140;11.488;2022-12-29T21:14:07;4.90;;;2.63;;
4430;SDS011;2228;48.140;11.488;2022-12-29T21:16:34;3.90;;;2.20;;
4430;SDS011;2228;48.140;11.488;2022-12-29T21:19:01;5.18;;;1.95;;
4430;SDS011;2228;48.140;11.488;2022-12-29T21:21:28;2.70;;;1.87;;
4430;SDS011;2228;48.140;11.488;2022-12-29T21:23:55;2.60;;;1.60;;
4430;SDS011;2228;48.140;11.488;2022-12-29T21:26:31;2.40;;;1.50;;
4430;SDS011;2228;48.140;11.488;2022-12-29T21:28:59;2.00;;;1.40;;
4430;SDS011;2228;48.140;11.488;2022-12-29T21:31:29;2.67;;;1.30;;
4430;SDS011;2228;48.140;11.488;2022-12-29T21:33:58;6.10;;;1.60;;
4430;SDS011;2228;48.140;11.488;2022-12-29T21:36:26;2.60;;;1.40;;
4430;SDS011;2228;48.140;11.488;2022-12-29T21:38:55;2.95;;;1.80;;
4430;SDS011;2228;48.140;11.488;2022-12-29T21:41:23;5.53;;;2.05;;
4430;SDS011;2228;48.140;11.488;2022-12-29T21:43:52;4.20;;;1.70;;
4430;SDS011;2228;48.140;11.488;2022-12-29T21:46:37;3.15;;;1.80;;
4430;SDS011;2228;48.140;11.488;2022-12-29T21:49:06;2.13;;;1.40;;
4430;SDS011;2228;48.140;11.488;2022-12-29T21:51:33;4.35;;;1.60;;
4430;SDS011;2228;48.140;11.488;2022-12-29T21:54:15;3.17;;;1.63;;
4430;SDS011;2228;48.140;11.488;2022-12-29T21:57:00;2.38;;;1.48;;
4430;SDS011;2228;48.140;11.488;2022-12-29T21:59:28;2.40;;;1.60;;
4430;SDS011;2228;48.140;11.488;2022-12-29T22:02:15;2.97;;;1.40;;
4430;SDS011;2228;48.140;11.488;2022-12-29T22:05:02;2.38;;;1.42;;
4430;SDS011;2228;48.140;11.488;2022-12-29T22:07:48;2.05;;;1.40;;
4430;SDS011;2228;48.140;11.488;2022-12-29T22:10:32;2.47;;;1.50;;
4430;SDS011;2228;48.140;11.488;2022-12-29T22:13:16;2.80;;;1.57;;
4430;SDS011;2228;48.140;11.488;2022-12-29T22:15:45;2.70;;;1.40;;
4430;SDS011;2228;48.140;11.488;2022-12-29T22:18:12;3.90;;;1.40;;
4430;SDS011;2228;48.140;11.488;2022-12-29T22:20:39;2.28;;;1.60;;
4430;SDS011;2228;48.140;11.488;2022-12-29T22:23:06;2.80;;;1.80;;
4430;SDS011;2228;48.140;11.488;2022-12-29T22:25:34;3.55;;;1.98;;
4430;SDS011;2228;48.140;11.488;2022-12-29T22:28:01;3.28;;;1.67;;
4430;SDS011;2228;48.140;11.488;2022-12-29T22:30:27;3.47;;;1.60;;
4430;SDS011;2228;48.140;11.488;2022-12-29T22:32:56;2.72;;;1.63;;
4430;SDS011;2228;48.140;11.488;2022-12-29T22:35:23;3.50;;;1.90;;
4430;SDS011;2228;48.140;11.488;2022-12-29T22:37:51;2.97;;;1.77;;
4430;SDS011;2228;48.140;11.488;2022-12-29T22:40:18;3.53;;;2.10;;
4430;SDS011;2228;48.140;11.488;2022-12-29T22:42:45;3.08;;;2.15;;
4430;SDS011;2228;48.140;11.488;2022-12-29T22:45:13;4.78;;;2.10;;
4430;SDS011;2228;48.140;11.488;2022-12-29T22:47:41;4.80;;;2.60;;
4430;SDS011;2228;48.140;11.488;2022-12-29T22:50:09;5.67;;;3.07;;
4430;SDS011;2228;48.140;11.488;2022-12-29T22:52:36;4.28;;;2.90;;
4430;SDS011;2228;48.140;11.488;2022-12-29T22:55:03;5.70;;;2.72;;
4430;SDS011;2228;48.140;11.488;2022-12-29T22:57:32;4.25;;;2.90;;
4430;SDS011;2228;48.140;11.488;2022-12-29T22:59:59;5.97;;;3.10;;
4430;SDS011;2228;48.140;11.488;2022-12-29T23:02:26;8.00;;;3.00;;
4430;SDS011;2228;48.140;11.488;2022-12-29T23:04:54;4.82;;;2.72;;
4430;SDS011;2228;48.140;11.488;2022-12-29T23:07:22;4.85;;;3.10;;
4430;SDS011;2228;48.140;11.488;2022-12-29T23:09:50;4.68;;;2.70;;
4430;SDS011;2228;48.140;11.488;2022-12-29T23:12:17;5.90;;;3.13;;
4430;SDS011;2228;48.140;11.488;2022-12-29T23:14:43;7.10;;;2.92;;
4430;SDS011;2228;48.140;11.488;2022-12-29T23:17:10;6.50;;;3.30;;
4430;SDS011;2228;48.140;11.488;2022-12-29T23:19:37;5.32;;;2.60;;
4430;SDS011;2228;48.140;11.488;2022-12-29T23:22:04;4.30;;;2.50;;
4430;SDS011;2228;48.140;11.488;2022-12-29T23:24:33;6.00;;;2.70;;
4430;SDS011;2228;48.140;11.488;2022-12-29T23:27:00;3.20;;;2.03;;
4430;SDS011;2228;48.140;11.488;2022-12-29T23:29:27;3.50;;;2.10;;
4430;SDS011;2228;48.140;11.488;2022-12-29T23:31:54;3.03;;;1.77;;
4430;SDS011;2228;48.140;11.488;2022-12-29T23:34:21;4.30;;;1.70;;
4430;SDS011;2228;48.140;11.488;2022-12-29T23:36:48;2.45;;;1.70;;
4430;SDS011;2228;48.140;11.488;2022-12-29T23:39:19;1.92;;;1.38;;
4430;SDS011;2228;48.140;11.488;2022-12-29T23:41:49;2.43;;;1.53;;
4430;SDS011;2228;48.140;11.488;2022-12-29T23:44:17;2.00;;;1.20;;
4430;SDS011;2228;48.140;11.488;2022-12-29T23:46:44;2.10;;;1.30;;
4430;SDS011;2228;48.140;11.488;2022-12-29T23:49:11;1.90;;;1.05;;
4430;SDS011;2228;48.140;11.488;2022-12-29T23:51:38;2.03;;;1.10;;
4430;SDS011;2228;48.140;11.488;2022-12-29T23:54:05;2.05;;;1.23;;
4430;SDS011;2228;48.140;11.488;2022-12-29T23:56:32;3.80;;;1.00;;
4430;SDS011;2228;48.140;11.488;2022-12-29T23:59:02;1.98;;;0.90;;
